createdAt,value
2022-09-07T00:00:07.845Z,95455.9
2022-09-07T00:01:10.322Z,95455.3
2022-09-07T00:02:12.539Z,95454.5
2022-09-07T00:03:15.270Z,95457.6
2022-09-07T00:04:18.427Z,95458.9
2022-09-07T00:05:20.749Z,95461.7
2022-09-07T00:06:23.244Z,95463.8
2022-09-07T00:07:25.436Z,95461.8
2022-09-07T00:08:28.444Z,95466.3
2022-09-07T00:09:31.058Z,95464.5
2022-09-07T00:10:33.534Z,95460.2
2022-09-07T00:11:36.005Z,95459.8
2022-09-07T00:12:38.486Z,95456.6
2022-09-07T00:13:40.979Z,95462
2022-09-07T00:14:42.613Z,95459.7
2022-09-07T00:15:45.084Z,95462.1
2022-09-07T00:16:47.666Z,95462.5
2022-09-07T00:17:50.133Z,95457.1
2022-09-07T00:18:52.310Z,95459.1
2022-09-07T00:19:54.794Z,95454.8
2022-09-07T00:20:56.974Z,95457.3
2022-09-07T00:21:59.169Z,95456.8
2022-09-07T00:23:01.639Z,95455.3
2022-09-07T00:24:03.838Z,95451.7
2022-09-07T00:25:06.330Z,95455.8
2022-09-07T00:26:08.264Z,95454.9
2022-09-07T00:27:10.736Z,95458.5
2022-09-07T00:28:13.211Z,95456.3
2022-09-07T00:29:15.691Z,95452.7
2022-09-07T00:30:18.186Z,95453.3
2022-09-07T00:31:21.068Z,95452.8
2022-09-07T00:32:23.647Z,95452.8
2022-09-07T00:33:25.862Z,95454.7
2022-09-07T00:34:28.048Z,95454
2022-09-07T00:35:30.248Z,95455.7
2022-09-07T00:36:32.456Z,95454.6
2022-09-07T00:37:34.939Z,95459.7
2022-09-07T00:38:37.142Z,95456.7
2022-09-07T00:39:39.716Z,95457.8
2022-09-07T00:40:42.272Z,95460.4
2022-09-07T00:41:44.750Z,95461.2
2022-09-07T00:42:47.248Z,95464.4
2022-09-07T00:43:49.415Z,95461.3
2022-09-07T00:44:51.902Z,95465.9
2022-09-07T00:45:54.385Z,95465
2022-09-07T00:46:57.182Z,95464
2022-09-07T00:47:59.529Z,95465.4
2022-09-07T00:49:01.718Z,95465.5
2022-09-07T00:50:03.921Z,95465.2
2022-09-07T00:51:06.406Z,95462.9
2022-09-07T00:52:08.304Z,95465.2
2022-09-07T00:53:10.785Z,95463.4
2022-09-07T00:54:13.252Z,95463.8
2022-09-07T00:55:15.448Z,95466.8
2022-09-07T00:56:17.920Z,95467.1
2022-09-07T00:57:20.120Z,95465.1
2022-09-07T00:58:22.586Z,95469.9
2022-09-07T00:59:25.059Z,95466.5
2022-09-07T01:00:27.338Z,95472.3
2022-09-07T01:01:30.392Z,95469.4
2022-09-07T01:02:33.873Z,95465
2022-09-07T01:03:36.116Z,95461.8
2022-09-07T01:04:38.582Z,95464.1
2022-09-07T01:05:40.777Z,95461.6
2022-09-07T01:06:43.249Z,95461.8
2022-09-07T01:07:45.755Z,95462.9
2022-09-07T01:08:47.932Z,95461.8
2022-09-07T01:09:50.137Z,95461.8
2022-09-07T01:10:52.335Z,95460.2
2022-09-07T01:11:54.818Z,95465
2022-09-07T01:12:57.290Z,95469.1
2022-09-07T01:13:59.770Z,95466.2
2022-09-07T01:15:02.233Z,95462
2022-09-07T01:16:04.874Z,95469
2022-09-07T01:17:07.231Z,95467
2022-09-07T01:18:09.434Z,95467.6
2022-09-07T01:19:11.644Z,95468.3
2022-09-07T01:20:14.131Z,95466.2
2022-09-07T01:21:16.597Z,95470.7
2022-09-07T01:22:19.083Z,95471.9
2022-09-07T01:23:21.558Z,95470.3
2022-09-07T01:24:23.803Z,95466.7
2022-09-07T01:25:25.712Z,95469
2022-09-07T01:26:27.634Z,95465.5
2022-09-07T01:27:30.101Z,95469.4
2022-09-07T01:28:33.062Z,95470.6
2022-09-07T01:29:35.532Z,95468.5
2022-09-07T01:30:37.747Z,95466.7
2022-09-07T01:31:40.209Z,95464.9
2022-09-07T01:32:42.696Z,95464.7
2022-09-07T01:33:45.165Z,95462.8
2022-09-07T01:34:47.635Z,95466.5
2022-09-07T01:35:50.119Z,95467.5
2022-09-07T01:36:52.312Z,95464.7
2022-09-07T01:38:59.503Z,95462.2
2022-09-07T01:40:02.305Z,95457.1
2022-09-07T01:41:04.656Z,95460.3
2022-09-07T01:42:07.135Z,95457.5
2022-09-07T01:43:09.604Z,95459.3
2022-09-07T01:44:12.091Z,95458.5
2022-09-07T01:45:14.305Z,95455.8
2022-09-07T01:46:16.765Z,95457
2022-09-07T01:47:19.371Z,95457
2022-09-07T01:48:21.604Z,95453.5
2022-09-07T01:49:24.087Z,95456.2
2022-09-07T01:50:26.570Z,95459.2
2022-09-07T01:51:29.074Z,95458.1
2022-09-07T01:52:31.558Z,95458.5
2022-09-07T01:53:33.744Z,95460.8
2022-09-07T01:54:35.670Z,95466.8
2022-09-07T01:55:37.859Z,95469.9
2022-09-07T01:56:40.338Z,95472.6
2022-09-07T01:57:42.511Z,95471.5
2022-09-07T01:58:44.987Z,95475.8
2022-09-07T01:59:46.912Z,95474.5
2022-09-07T02:00:49.395Z,95476.5
2022-09-07T02:01:52.009Z,95474.5
2022-09-07T02:02:54.666Z,95471.3
2022-09-07T02:03:57.235Z,95473.2
2022-09-07T02:04:59.135Z,95475.5
2022-09-07T02:06:01.606Z,95475.3
2022-09-07T02:07:04.094Z,95472.8
2022-09-07T02:08:06.575Z,95475.5
2022-09-07T02:09:08.783Z,95473.2
2022-09-07T02:10:10.947Z,95473.9
2022-09-07T02:11:13.215Z,95470.5
2022-09-07T02:12:15.101Z,95469.8
2022-09-07T02:13:17.587Z,95470.7
2022-09-07T02:14:20.057Z,95471.1
2022-09-07T02:15:22.532Z,95473.7
2022-09-07T02:16:25.255Z,95473.2
2022-09-07T02:17:27.439Z,95478.3
2022-09-07T02:18:29.775Z,95473.9
2022-09-07T02:19:32.084Z,95476.5
2022-09-07T02:20:34.549Z,95473.9
2022-09-07T02:21:36.752Z,95465.6
2022-09-07T02:22:39.237Z,95469.1
2022-09-07T02:23:41.437Z,95465.5
2022-09-07T02:24:43.956Z,95462.6
2022-09-07T02:25:46.444Z,95465
2022-09-07T02:26:48.616Z,95462.3
2022-09-07T02:27:51.091Z,95459.8
2022-09-07T02:28:53.559Z,95455.7
2022-09-07T02:29:56.032Z,95448.1
2022-09-07T02:30:58.744Z,95446
2022-09-07T02:32:01.357Z,95448.8
2022-09-07T02:33:03.828Z,95445.6
2022-09-07T02:34:06.314Z,95444.6
2022-09-07T02:35:08.788Z,95440.9
2022-09-07T02:36:11.269Z,95450.3
2022-09-07T02:37:13.474Z,95449.7
2022-09-07T02:38:15.681Z,95449.1
2022-09-07T02:39:17.890Z,95449.6
2022-09-07T02:40:20.354Z,95443.8
2022-09-07T02:41:22.832Z,95446.7
2022-09-07T02:42:25.296Z,95445.6
2022-09-07T02:43:27.220Z,95446.5
2022-09-07T02:44:29.136Z,95444.3
2022-09-07T02:45:31.607Z,95448.3
2022-09-07T02:46:34.418Z,95446.9
2022-09-07T02:47:36.428Z,95448.5
2022-09-07T02:48:38.892Z,95443
2022-09-07T02:49:41.373Z,95444.5
2022-09-07T02:50:43.578Z,95444.2
2022-09-07T02:51:46.067Z,95440.1
2022-09-07T02:52:48.603Z,95442.7
2022-09-07T02:53:50.813Z,95442.2
2022-09-07T02:54:53.282Z,95440.6
2022-09-07T02:55:55.751Z,95441.1
2022-09-07T02:56:57.679Z,95441.3
2022-09-07T02:57:59.868Z,95445.6
2022-09-07T02:59:01.780Z,95441.1
2022-09-07T03:00:03.998Z,95444.3
2022-09-07T03:01:06.469Z,95444.8
2022-09-07T03:02:09.031Z,95442.6
2022-09-07T03:03:11.527Z,95440.5
2022-09-07T03:04:14.001Z,95440.9
2022-09-07T03:05:16.486Z,95438.7
2022-09-07T03:06:18.683Z,95435.6
2022-09-07T03:07:21.150Z,95432.6
2022-09-07T03:08:23.646Z,95436.7
2022-09-07T03:09:26.228Z,95442.9
2022-09-07T03:10:28.777Z,95443.9
2022-09-07T03:11:31.326Z,95443.1
2022-09-07T03:12:33.829Z,95454.3
2022-09-07T03:13:35.729Z,95457.2
2022-09-07T03:14:38.236Z,95457.7
2022-09-07T03:15:41.119Z,95455.9
2022-09-07T03:16:43.702Z,95448.1
2022-09-07T03:17:46.169Z,95449.2
2022-09-07T03:18:48.745Z,95449.8
2022-09-07T03:19:51.220Z,95452.3
2022-09-07T03:20:53.419Z,95449.9
2022-09-07T03:21:55.885Z,95448.5
2022-09-07T03:22:58.366Z,95447.4
2022-09-07T03:24:00.581Z,95450.4
2022-09-07T03:25:03.057Z,95451.3
2022-09-07T03:26:05.539Z,95449.7
2022-09-07T03:27:07.739Z,95452
2022-09-07T03:28:09.949Z,95449.3
2022-09-07T03:29:12.469Z,95451.1
2022-09-07T03:30:14.956Z,95450.8
2022-09-07T03:31:17.513Z,95452.1
2022-09-07T03:32:20.081Z,95453
2022-09-07T03:33:22.551Z,95455
2022-09-07T03:34:24.732Z,95453.7
2022-09-07T03:35:27.215Z,95446.5
2022-09-07T03:36:29.386Z,95448.5
2022-09-07T03:37:31.852Z,95448.3
2022-09-07T03:38:34.422Z,95457.5
2022-09-07T03:39:37.144Z,95451.8
2022-09-07T03:40:39.704Z,95447.9
2022-09-07T03:41:41.368Z,95449.8
2022-09-07T03:42:43.849Z,95445.8
2022-09-07T03:43:45.761Z,95444.9
2022-09-07T03:44:47.971Z,95452.3
2022-09-07T03:45:50.114Z,95449.9
2022-09-07T03:46:52.696Z,95450.5
2022-09-07T03:47:55.177Z,95452.7
2022-09-07T03:48:57.660Z,95452.8
2022-09-07T03:49:59.839Z,95446.1
2022-09-07T03:51:02.087Z,95448.9
2022-09-07T03:52:04.563Z,95450.5
2022-09-07T03:53:07.037Z,95451.4
2022-09-07T03:54:09.243Z,95451.2
2022-09-07T03:55:11.445Z,95451.5
2022-09-07T03:56:13.677Z,95456.2
2022-09-07T03:57:16.150Z,95459.4
2022-09-07T03:58:18.624Z,95455.8
2022-09-07T03:59:21.092Z,95459.1
2022-09-07T04:00:23.284Z,95457
2022-09-07T04:01:25.816Z,95464
2022-09-07T04:02:28.439Z,95462.8
2022-09-07T04:03:30.442Z,95458.9
2022-09-07T04:04:32.073Z,95465.3
2022-09-07T04:05:34.551Z,95460.9
2022-09-07T04:06:36.470Z,95455.6
2022-09-07T04:07:38.949Z,95459.5
2022-09-07T04:08:41.147Z,95460.3
2022-09-07T04:09:42.804Z,95465.1
2022-09-07T04:10:45.330Z,95467.7
2022-09-07T04:11:47.227Z,95466.3
2022-09-07T04:12:49.403Z,95462.8
2022-09-07T04:13:51.600Z,95464.7
2022-09-07T04:14:53.767Z,95464.1
2022-09-07T04:15:55.426Z,95457.9
2022-09-07T04:16:58.238Z,95459.3
2022-09-07T04:18:00.794Z,95460.5
2022-09-07T04:19:03.277Z,95459.4
2022-09-07T04:20:05.488Z,95459.9
2022-09-07T04:21:07.963Z,95461.8
2022-09-07T04:22:10.165Z,95464.1
2022-09-07T04:23:12.094Z,95464.9
2022-09-07T04:24:14.573Z,95467.8
2022-09-07T04:25:17.057Z,95464.2
2022-09-07T04:26:19.531Z,95465.1
2022-09-07T04:27:21.729Z,95468.3
2022-09-07T04:28:23.935Z,95473.6
2022-09-07T04:29:25.876Z,95469.7
2022-09-07T04:30:28.542Z,95474.7
2022-09-07T04:31:31.159Z,95473.9
2022-09-07T04:32:33.647Z,95469.9
2022-09-07T04:33:35.856Z,95477
2022-09-07T04:34:38.337Z,95475.1
2022-09-07T04:35:40.546Z,95478.9
2022-09-07T04:36:43.018Z,95475.1
2022-09-07T04:37:45.215Z,95473
2022-09-07T04:38:47.687Z,95472
2022-09-07T04:39:50.177Z,95467.9
2022-09-07T04:40:52.522Z,95470
2022-09-07T04:41:54.727Z,95467.7
2022-09-07T04:42:57.214Z,95466.8
2022-09-07T04:43:59.711Z,95464
2022-09-07T04:45:02.187Z,95464.8
2022-09-07T04:46:04.649Z,95466.7
2022-09-07T04:47:06.939Z,95465.1
2022-09-07T04:48:09.145Z,95470.3
2022-09-07T04:49:11.352Z,95468
2022-09-07T04:50:13.568Z,95468.8
2022-09-07T04:51:15.748Z,95468.2
2022-09-07T04:52:18.225Z,95472.6
2022-09-07T04:53:20.426Z,95470.5
2022-09-07T04:54:22.895Z,95470.6
2022-09-07T04:55:25.367Z,95470.8
2022-09-07T04:56:27.566Z,95465.7
2022-09-07T04:57:29.769Z,95467.1
2022-09-07T04:58:32.767Z,95469.1
2022-09-07T04:59:34.673Z,95471.7
2022-09-07T05:00:37.150Z,95469.2
2022-09-07T05:01:39.941Z,95469.9
2022-09-07T05:02:42.754Z,95470.5
2022-09-07T05:03:45.133Z,95471.5
2022-09-07T05:04:47.625Z,95473.5
2022-09-07T05:05:50.096Z,95472.1
2022-09-07T05:06:52.577Z,95470.8
2022-09-07T05:07:55.044Z,95468.5
2022-09-07T05:08:57.223Z,95473.3
2022-09-07T05:09:59.716Z,95476.2
2022-09-07T05:11:01.917Z,95476.7
2022-09-07T05:12:04.123Z,95477.4
2022-09-07T05:13:06.323Z,95478.4
2022-09-07T05:14:08.532Z,95481.3
2022-09-07T05:15:10.999Z,95479.2
2022-09-07T05:16:13.753Z,95475.4
2022-09-07T05:17:16.098Z,95475.1
2022-09-07T05:18:18.564Z,95478.4
2022-09-07T05:19:20.790Z,95479
2022-09-07T05:20:23.264Z,95481.1
2022-09-07T05:21:25.464Z,95484.5
2022-09-07T05:22:27.688Z,95482.4
2022-09-07T05:23:30.165Z,95483.8
2022-09-07T05:24:32.654Z,95486
2022-09-07T05:25:35.131Z,95490.1
2022-09-07T05:26:37.615Z,95491.7
2022-09-07T05:27:40.101Z,95487.8
2022-09-07T05:28:42.295Z,95486.9
2022-09-07T05:31:54.780Z,95496.2
2022-09-07T05:32:57.257Z,95497.8
2022-09-07T05:35:04.230Z,95497.8
2022-09-07T05:36:06.719Z,95502.6
2022-09-07T05:37:08.919Z,95502.9
2022-09-07T05:38:11.392Z,95507.8
2022-09-07T05:39:13.306Z,95502.9
2022-09-07T05:40:15.922Z,95504.2
2022-09-07T05:41:18.132Z,95504.9
2022-09-07T05:42:20.353Z,95509.6
2022-09-07T05:43:22.551Z,95511
2022-09-07T05:45:29.963Z,95515.4
2022-09-07T05:46:32.491Z,95517.7
2022-09-07T05:47:35.011Z,95508.7
2022-09-07T05:48:37.496Z,95512.7
2022-09-07T05:49:39.715Z,95523
2022-09-07T05:50:42.216Z,95526
2022-09-07T05:51:44.694Z,95526.9
2022-09-07T05:52:46.908Z,95524.1
2022-09-07T05:53:48.842Z,95526
2022-09-07T05:54:52.660Z,95524.2
2022-09-07T05:55:57.538Z,95525.9
2022-09-07T05:56:59.447Z,95522.2
2022-09-07T05:58:01.670Z,95526.2
2022-09-07T05:59:03.618Z,95528
2022-09-07T06:00:05.834Z,95531
2022-09-07T06:01:08.308Z,95532.7
2022-09-07T06:02:10.873Z,95532.5
2022-09-07T06:03:14.242Z,95530.4
2022-09-07T06:04:16.697Z,95536.7
2022-09-07T06:05:19.187Z,95541.5
2022-09-07T06:06:21.365Z,95541.3
2022-09-07T06:07:24.678Z,95543.2
2022-09-07T06:08:27.196Z,95547.7
2022-09-07T06:11:39.472Z,95549
2022-09-07T06:13:47.140Z,95547.3
2022-09-07T06:14:49.610Z,95547.8
2022-09-07T06:15:51.810Z,95546.8
2022-09-07T06:16:54.575Z,95548.4
2022-09-07T06:17:57.137Z,95550.6
2022-09-07T06:18:59.322Z,95552.6
2022-09-07T06:20:01.215Z,95555.5
2022-09-07T06:21:03.690Z,95555.2
2022-09-07T06:22:05.894Z,95559.5
2022-09-07T06:23:08.098Z,95558.5
2022-09-07T06:24:10.567Z,95560.9
2022-09-07T06:25:13.046Z,95560.5
2022-09-07T06:26:15.240Z,95557.7
2022-09-07T06:27:17.720Z,95565.1
2022-09-07T06:28:20.201Z,95563.5
2022-09-07T06:29:22.683Z,95570.4
2022-09-07T06:30:25.187Z,95566.5
2022-09-07T06:31:28.515Z,95573.6
2022-09-07T06:33:36.683Z,95579.3
2022-09-07T06:34:39.193Z,95574.2
2022-09-07T06:35:41.673Z,95575.2
2022-09-07T06:36:44.151Z,95578.9
2022-09-07T06:37:46.617Z,95576.7
2022-09-07T06:38:48.833Z,95575.9
2022-09-07T06:39:51.535Z,95578.7
2022-09-07T06:41:59.216Z,95575.9
2022-09-07T06:43:01.452Z,95575.8
2022-09-07T06:44:03.659Z,95580.5
2022-09-07T06:45:06.132Z,95583.1
2022-09-07T06:47:13.042Z,95582.5
2022-09-07T06:48:15.554Z,95581.8
2022-09-07T06:49:18.033Z,95581.7
2022-09-07T06:50:20.251Z,95582.1
2022-09-07T06:51:22.727Z,95580.7
2022-09-07T06:52:25.951Z,95579.5
2022-09-07T06:55:38.222Z,95577.9
2022-09-07T06:56:40.704Z,95578.7
2022-09-07T06:57:42.901Z,95578.4
2022-09-07T06:58:45.376Z,95573.6
2022-09-07T06:59:47.568Z,95576.4
2022-09-07T07:00:49.840Z,95569.9
2022-09-07T07:01:52.474Z,95568.6
2022-09-07T07:02:54.980Z,95568.1
2022-09-07T07:03:57.079Z,95567.8
2022-09-07T07:04:59.302Z,95572.3
2022-09-07T07:06:01.514Z,95578
2022-09-07T07:07:04.007Z,95583.1
2022-09-07T07:08:06.232Z,95580.1
2022-09-07T07:09:08.480Z,95585.3
2022-09-07T07:10:10.687Z,95582.3
2022-09-07T07:11:13.173Z,95585.2
2022-09-07T07:13:36.331Z,95582.6
2022-09-07T07:15:43.514Z,95585.4
2022-09-07T07:16:45.998Z,95586.2
2022-09-07T07:18:53.583Z,95581
2022-09-07T07:19:55.789Z,95582.6
2022-09-07T07:20:57.692Z,95581.3
2022-09-07T07:23:05.188Z,95585.9
2022-09-07T07:24:09.466Z,95585.4
2022-09-07T07:25:11.949Z,95589
2022-09-07T07:26:14.442Z,95589.3
2022-09-07T07:27:16.911Z,95589
2022-09-07T07:29:39.544Z,95589.6
2022-09-07T07:30:41.762Z,95590.9
2022-09-07T07:31:44.250Z,95593.5
2022-09-07T07:32:46.740Z,95592.9
2022-09-07T07:33:49.602Z,95597.6
2022-09-07T07:34:52.194Z,95599.8
2022-09-07T07:35:54.391Z,95597.5
2022-09-07T07:36:56.881Z,95599
2022-09-07T07:39:05.285Z,95597.4
2022-09-07T07:42:17.603Z,95593.2
2022-09-07T07:43:20.088Z,95597.6
2022-09-07T07:44:22.596Z,95596.2
2022-09-07T07:46:30.378Z,95598.3
2022-09-07T07:47:32.992Z,95595.7
2022-09-07T07:48:34.929Z,95599.9
2022-09-07T07:49:37.493Z,95599.5
2022-09-07T07:50:39.999Z,95599
2022-09-07T07:53:52.225Z,95596.3
2022-09-07T07:54:54.180Z,95603.6
2022-09-07T07:55:56.695Z,95598.7
2022-09-07T07:56:58.910Z,95600
2022-09-07T07:58:01.395Z,95598.9
2022-09-07T07:59:03.610Z,95600.3
2022-09-07T08:00:06.088Z,95599.5
2022-09-07T08:01:08.800Z,95600.8
2022-09-07T08:02:11.217Z,95596.8
2022-09-07T08:03:13.582Z,95594.3
2022-09-07T08:04:16.057Z,95597.8
2022-09-07T08:05:18.632Z,95592.8
2022-09-07T08:06:20.865Z,95592.3
2022-09-07T08:07:23.345Z,95590.9
2022-09-07T08:08:25.863Z,95588.7
2022-09-07T08:09:28.358Z,95586.2
2022-09-07T08:10:30.841Z,95589.6
2022-09-07T08:11:33.055Z,95589.9
2022-09-07T08:12:35.257Z,95587.8
2022-09-07T08:13:37.447Z,95592.4
2022-09-07T08:14:39.923Z,95595
2022-09-07T08:15:42.159Z,95590.7
2022-09-07T08:16:45.004Z,95588.8
2022-09-07T08:17:47.421Z,95592.6
2022-09-07T08:18:49.898Z,95590.7
2022-09-07T08:19:51.826Z,95587.5
2022-09-07T08:20:54.400Z,95590.8
2022-09-07T08:21:56.712Z,95590.9
2022-09-07T08:22:58.919Z,95588.3
2022-09-07T08:24:00.911Z,95588.3
2022-09-07T08:25:03.213Z,95590.5
2022-09-07T08:26:05.697Z,95591.8
2022-09-07T08:27:07.621Z,95594.1
2022-09-07T08:28:10.112Z,95590.6
2022-09-07T08:29:12.366Z,95592.5
2022-09-07T08:30:14.854Z,95586
2022-09-07T08:31:17.532Z,95587.5
2022-09-07T08:32:20.106Z,95583.1
2022-09-07T08:33:22.578Z,95582.5
2022-09-07T08:34:24.776Z,95585.9
2022-09-07T08:35:26.968Z,95583.4
2022-09-07T08:36:29.728Z,95575.9
2022-09-07T08:37:32.274Z,95576.8
2022-09-07T08:38:34.215Z,95576.4
2022-09-07T08:39:36.363Z,95578.2
2022-09-07T08:40:38.717Z,95577.3
2022-09-07T08:41:40.933Z,95576.3
2022-09-07T08:42:43.153Z,95570.8
2022-09-07T08:44:50.673Z,95568.9
2022-09-07T08:45:53.156Z,95569
2022-09-07T08:46:55.737Z,95570
2022-09-07T08:47:58.359Z,95564.7
2022-09-07T08:49:00.250Z,95566.7
2022-09-07T08:50:02.513Z,95567.9
2022-09-07T08:51:04.985Z,95571.4
2022-09-07T08:52:07.539Z,95564.8
2022-09-07T08:53:10.034Z,95567.5
2022-09-07T08:54:12.513Z,95568.3
2022-09-07T08:55:14.726Z,95567.4
2022-09-07T08:56:16.954Z,95568.9
2022-09-07T08:59:28.837Z,95565.1
2022-09-07T09:00:31.559Z,95564.1
2022-09-07T09:01:36.656Z,95564.5
2022-09-07T09:05:55.021Z,95564.5
2022-09-07T09:06:58.614Z,95560
2022-09-07T09:08:01.594Z,95561
2022-09-07T09:09:04.173Z,95566.5
2022-09-07T09:10:06.377Z,95569.6
2022-09-07T09:11:08.856Z,95567
2022-09-07T09:12:11.330Z,95564.8
2022-09-07T09:13:13.537Z,95557.7
2022-09-07T09:14:15.705Z,95560.6
2022-09-07T09:15:17.980Z,95560.2
2022-09-07T09:16:20.962Z,95558.2
2022-09-07T09:17:23.563Z,95555.3
2022-09-07T09:18:26.243Z,95550.1
2022-09-07T09:19:28.731Z,95553.6
2022-09-07T09:20:30.379Z,95549.5
2022-09-07T09:21:32.584Z,95547.7
2022-09-07T09:22:34.775Z,95549.7
2022-09-07T09:23:37.397Z,95550.9
2022-09-07T09:24:39.971Z,95557.5
2022-09-07T09:25:42.455Z,95553.6
2022-09-07T09:26:44.847Z,95555.9
2022-09-07T09:27:47.162Z,95552.6
2022-09-07T09:28:49.346Z,95550
2022-09-07T09:29:51.296Z,95552.1
2022-09-07T09:30:53.689Z,95549.1
2022-09-07T09:31:56.236Z,95550.1
2022-09-07T09:32:58.704Z,95552.9
2022-09-07T09:34:01.195Z,95551.3
2022-09-07T09:35:03.438Z,95552.6
2022-09-07T09:36:05.917Z,95551.2
2022-09-07T09:37:08.132Z,95548.2
2022-09-07T09:38:10.622Z,95549.4
2022-09-07T09:39:12.616Z,95549.1
2022-09-07T09:40:15.702Z,95543.8
2022-09-07T09:41:18.054Z,95545.9
2022-09-07T09:42:20.245Z,95550.1
2022-09-07T09:43:22.750Z,95553
2022-09-07T09:44:25.219Z,95549.7
2022-09-07T09:45:27.938Z,95546.8
2022-09-07T09:46:30.496Z,95550.9
2022-09-07T09:47:34.073Z,95551.7
2022-09-07T09:48:35.612Z,95545.3
2022-09-07T09:49:38.107Z,95549.7
2022-09-07T09:53:55.575Z,95539.8
2022-09-07T09:56:03.112Z,95541.2
2022-09-07T09:57:05.326Z,95542.8
2022-09-07T10:04:41.117Z,95544.8
2022-09-07T10:05:43.589Z,95547.7
2022-09-07T10:06:46.065Z,95543.6
2022-09-07T10:07:48.275Z,95546.1
2022-09-07T10:08:50.743Z,95538.5
2022-09-07T10:09:53.218Z,95539.8
2022-09-07T10:10:55.709Z,95537
2022-09-07T10:13:02.724Z,95539.7
2022-09-07T10:14:05.217Z,95538
2022-09-07T10:15:07.413Z,95539
2022-09-07T10:16:10.247Z,95537.9
2022-09-07T10:17:12.588Z,95538.8
2022-09-07T10:18:15.067Z,95536.7
2022-09-07T10:19:16.989Z,95534.8
2022-09-07T10:20:19.486Z,95536.1
2022-09-07T10:21:21.955Z,95531.3
2022-09-07T10:22:24.429Z,95539.1
2022-09-07T10:23:26.635Z,95540.9
2022-09-07T10:24:29.118Z,95542
2022-09-07T10:25:31.315Z,95543.8
2022-09-07T10:26:33.553Z,95544.3
2022-09-07T10:27:35.766Z,95544.7
2022-09-07T10:29:43.071Z,95547.3
2022-09-07T10:30:45.853Z,95544.4
2022-09-07T10:31:48.142Z,95547.5
2022-09-07T10:32:50.638Z,95539.2
2022-09-07T10:34:57.732Z,95541.6
2022-09-07T10:36:00.232Z,95544.3
2022-09-07T10:37:02.729Z,95542
2022-09-07T10:38:04.923Z,95539.1
2022-09-07T10:39:07.120Z,95534.6
2022-09-07T10:40:09.020Z,95537.6
2022-09-07T10:41:11.327Z,95536.9
2022-09-07T10:42:13.827Z,95534.6
2022-09-07T10:44:21.296Z,95531.9
2022-09-07T10:45:23.870Z,95534.8
2022-09-07T10:47:31.641Z,95526.1
2022-09-07T10:48:34.312Z,95524.8
2022-09-07T10:49:36.858Z,95519
2022-09-07T10:50:39.508Z,95514.7
2022-09-07T10:51:41.416Z,95518.8
2022-09-07T10:52:43.622Z,95513.4
2022-09-07T10:53:46.998Z,95512.6
2022-09-07T10:54:54.168Z,95504.8
2022-09-07T10:55:56.792Z,95502
2022-09-07T10:56:59.305Z,95502.9
2022-09-07T10:58:01.530Z,95501.2
2022-09-07T10:59:05.771Z,95501.5
2022-09-07T11:00:11.409Z,95495.4
2022-09-07T11:01:14.530Z,95492.7
2022-09-07T11:02:17.436Z,95489.4
2022-09-07T11:04:24.493Z,95490.2
2022-09-07T11:06:31.701Z,95490.7
2022-09-07T11:07:33.646Z,95490.1
2022-09-07T11:09:40.855Z,95486.2
2022-09-07T11:10:42.811Z,95486.6
2022-09-07T11:12:50.014Z,95479
2022-09-07T11:14:57.507Z,95481.8
2022-09-07T11:16:00.430Z,95476.3
2022-09-07T11:17:03.469Z,95473.2
2022-09-07T11:18:05.876Z,95478.5
2022-09-07T11:20:13.093Z,95471.3
2022-09-07T11:21:55.975Z,95471.1
2022-09-07T11:22:21.976Z,95466.2
2022-09-07T11:23:24.470Z,95463.6
2022-09-07T11:24:26.378Z,95461.4
2022-09-07T11:26:33.614Z,95457.6
2022-09-07T11:27:36.108Z,95456.1
2022-09-07T11:28:38.323Z,95455
2022-09-07T11:29:40.834Z,95457.2
2022-09-07T11:30:43.409Z,95458.2
2022-09-07T11:31:46.037Z,95458.4
2022-09-07T11:32:48.611Z,95452.6
2022-09-07T11:34:56.247Z,95454.5
2022-09-07T11:35:58.495Z,95450.5
2022-09-07T11:37:00.702Z,95449.8
2022-09-07T11:38:03.180Z,95450.2
2022-09-07T11:39:05.667Z,95449.3
2022-09-07T11:40:08.811Z,95449.9
2022-09-07T11:41:11.212Z,95449.9
2022-09-07T11:43:18.743Z,95445.5
2022-09-07T11:44:21.793Z,95448.3
2022-09-07T11:45:24.354Z,95447.3
2022-09-07T11:46:26.952Z,95446.7
2022-09-07T11:47:29.539Z,95447
2022-09-07T11:48:33.790Z,95444.1
2022-09-07T11:49:36.796Z,95445.5
2022-09-07T11:50:39.006Z,95449.1
2022-09-07T11:51:41.200Z,95441.2
2022-09-07T11:52:43.400Z,95447.6
2022-09-07T11:53:45.603Z,95441
2022-09-07T11:54:48.099Z,95441.4
2022-09-07T11:55:50.304Z,95440.9
2022-09-07T11:56:52.234Z,95439.9
2022-09-07T11:58:59.704Z,95446.6
2022-09-07T12:00:02.196Z,95441.8
2022-09-07T12:01:04.688Z,95439.7
2022-09-07T12:02:07.500Z,95445.4
2022-09-07T12:03:10.331Z,95440.7
2022-09-07T12:05:17.914Z,95443.1
2022-09-07T12:06:20.407Z,95435.8
2022-09-07T12:07:22.892Z,95435.5
2022-09-07T12:08:25.376Z,95437.8
2022-09-07T12:09:27.658Z,95434.2
2022-09-07T12:10:30.136Z,95426.6
2022-09-07T12:11:32.614Z,95427.2
2022-09-07T12:12:34.568Z,95428.1
2022-09-07T12:13:36.782Z,95431.1
2022-09-07T12:14:38.974Z,95425.8
2022-09-07T12:15:41.702Z,95432.6
2022-09-07T12:16:44.341Z,95431.5
2022-09-07T12:17:46.861Z,95424.6
2022-09-07T12:18:49.118Z,95428.5
2022-09-07T12:19:51.718Z,95431.5
2022-09-07T12:20:54.287Z,95428.1
2022-09-07T12:21:56.795Z,95425.4
2022-09-07T12:24:03.711Z,95422.8
2022-09-07T12:25:06.202Z,95420.9
2022-09-07T12:26:08.111Z,95419.9
2022-09-07T12:27:10.309Z,95421.8
2022-09-07T12:28:12.525Z,95423.3
2022-09-07T12:29:14.782Z,95422.7
2022-09-07T12:30:17.262Z,95419.7
2022-09-07T12:31:20.265Z,95415.9
2022-09-07T12:33:28.413Z,95420.1
2022-09-07T12:34:30.891Z,95415.6
2022-09-07T12:35:33.082Z,95414.8
2022-09-07T12:36:35.491Z,95417.9
2022-09-07T12:37:37.417Z,95414.1
2022-09-07T12:38:39.905Z,95404
2022-09-07T12:39:42.649Z,95406.5
2022-09-07T12:40:44.936Z,95412
2022-09-07T12:41:49.421Z,95409.2
2022-09-07T12:42:52.143Z,95403.9
2022-09-07T12:43:54.636Z,95406.4
2022-09-07T12:44:57.118Z,95402.2
2022-09-07T12:45:59.800Z,95401.4
2022-09-07T12:47:02.155Z,95401.6
2022-09-07T12:48:05.840Z,95403
2022-09-07T12:49:08.061Z,95400
2022-09-07T12:50:11.642Z,95395.9
2022-09-07T12:51:15.246Z,95397.3
2022-09-07T12:52:18.198Z,95396.5
2022-09-07T12:53:20.743Z,95394
2022-09-07T12:54:23.219Z,95394.2
2022-09-07T12:56:30.698Z,95397.5
2022-09-07T12:57:32.937Z,95395.9
2022-09-07T12:58:35.429Z,95396.8
2022-09-07T12:59:37.618Z,95397.2
2022-09-07T13:00:41.037Z,95397
2022-09-07T13:01:44.407Z,95389.2
2022-09-07T13:02:47.359Z,95390.2
2022-09-07T13:03:53.186Z,95387
2022-09-07T13:04:55.377Z,95387.1
2022-09-07T13:05:57.619Z,95384.5
2022-09-07T13:09:10.283Z,95382.5
2022-09-07T13:10:12.516Z,95382.5
2022-09-07T13:11:14.989Z,95379.6
2022-09-07T13:14:27.457Z,95377.5
2022-09-07T13:15:30.172Z,95373.8
2022-09-07T13:17:38.510Z,95373
2022-09-07T13:18:40.996Z,95374.6
2022-09-07T13:19:43.224Z,95370.8
2022-09-07T13:20:45.698Z,95372.4
2022-09-07T13:21:47.890Z,95370.8
2022-09-07T13:22:50.069Z,95370.4
2022-09-07T13:23:53.672Z,95368.5
2022-09-07T13:24:56.021Z,95369.3
2022-09-07T13:25:58.571Z,95365.9
2022-09-07T13:27:00.777Z,95364.4
2022-09-07T13:28:03.250Z,95361.4
2022-09-07T13:29:05.798Z,95361.7
2022-09-07T13:30:08.798Z,95359.1
2022-09-07T13:31:11.730Z,95355.2
2022-09-07T13:32:15.818Z,95351.9
2022-09-07T13:33:18.385Z,95353.3
2022-09-07T13:34:20.863Z,95352.8
2022-09-07T13:35:23.110Z,95354
2022-09-07T13:36:25.634Z,95351.7
2022-09-07T13:37:29.501Z,95353.7
2022-09-07T13:38:31.710Z,95353.7
2022-09-07T13:39:34.414Z,95353.5
2022-09-07T13:40:37.168Z,95351.4
2022-09-07T13:41:39.390Z,95346.9
2022-09-07T13:42:41.895Z,95348.3
2022-09-07T13:43:44.125Z,95352.4
2022-09-07T13:44:46.627Z,95347.8
2022-09-07T13:45:48.903Z,95350.9
2022-09-07T13:46:51.484Z,95345.9
2022-09-07T13:47:53.952Z,95347.8
2022-09-07T13:48:56.512Z,95350.6
2022-09-07T13:49:58.890Z,95345